createdAt,value
2016-11-15T00:00:59.771Z,1021.02
2016-11-15T00:01:59.756Z,1020.99
2016-11-15T00:02:59.737Z,1020.92
2016-11-15T00:03:59.721Z,1020.94
2016-11-15T00:04:59.704Z,1020.92
2016-11-15T00:05:59.691Z,1020.91
2016-11-15T00:06:59.675Z,1020.91
2016-11-15T00:07:59.657Z,1020.93
2016-11-15T00:08:59.641Z,1020.92
2016-11-15T00:09:59.623Z,1020.91
2016-11-15T00:10:59.605Z,1020.88
2016-11-15T00:11:59.593Z,1020.9
2016-11-15T00:12:59.784Z,1020.88
2016-11-15T00:13:59.556Z,1020.87
2016-11-15T00:14:59.539Z,1020.82
2016-11-15T00:15:59.524Z,1020.85
2016-11-15T00:16:59.511Z,1020.81
2016-11-15T00:17:59.490Z,1020.79
2016-11-15T00:18:59.474Z,1020.79
2016-11-15T00:19:59.455Z,1020.79
2016-11-15T00:20:59.441Z,1020.74
2016-11-15T00:21:59.426Z,1020.77
2016-11-15T00:22:59.409Z,1020.72
2016-11-15T00:23:59.399Z,1020.68
2016-11-15T00:24:59.376Z,1020.64
2016-11-15T00:25:59.359Z,1020.63
2016-11-15T00:26:59.346Z,1020.63
2016-11-15T00:27:59.325Z,1020.63
2016-11-15T00:28:59.310Z,1020.6
2016-11-15T00:29:59.296Z,1020.57
2016-11-15T00:30:59.276Z,1020.58
2016-11-15T00:31:59.260Z,1020.56
2016-11-15T00:32:59.243Z,1020.52
2016-11-15T00:33:59.228Z,1020.51
2016-11-15T00:34:59.211Z,1020.52
2016-11-15T00:35:59.196Z,1020.45
2016-11-15T00:36:59.177Z,1020.43
2016-11-15T00:37:59.163Z,1020.4
2016-11-15T00:38:59.147Z,1020.37
2016-11-15T00:39:59.129Z,1020.38
2016-11-15T00:40:59.112Z,1020.37
2016-11-15T00:41:59.098Z,1020.35
2016-11-15T00:42:59.079Z,1020.37
2016-11-15T00:43:59.064Z,1020.4
2016-11-15T00:44:59.047Z,1020.39
2016-11-15T00:45:59.031Z,1020.42
2016-11-15T00:46:59.010Z,1020.42
2016-11-15T00:47:58.999Z,1020.46
2016-11-15T00:48:58.982Z,1020.42
2016-11-15T00:49:58.963Z,1020.45
2016-11-15T00:50:58.947Z,1020.4
2016-11-15T00:51:58.931Z,1020.46
2016-11-15T00:52:58.915Z,1020.43
2016-11-15T00:53:58.901Z,1020.43
2016-11-15T00:54:58.884Z,1020.47
2016-11-15T00:55:58.868Z,1020.44
2016-11-15T00:56:58.847Z,1020.42
2016-11-15T00:57:58.833Z,1020.43
2016-11-15T00:58:58.816Z,1020.39
2016-11-15T00:59:58.797Z,1020.36
2016-11-15T01:00:58.782Z,1020.37
2016-11-15T01:01:58.766Z,1020.4
2016-11-15T01:02:58.748Z,1020.36
2016-11-15T01:03:58.732Z,1020.35
2016-11-15T01:04:58.715Z,1020.43
2016-11-15T01:05:58.698Z,1020.33
2016-11-15T01:06:58.682Z,1020.33
2016-11-15T01:07:58.669Z,1020.29
2016-11-15T01:08:58.650Z,1020.31
2016-11-15T01:09:58.640Z,1020.28
2016-11-15T01:10:58.618Z,1020.27
2016-11-15T01:11:58.601Z,1020.29
2016-11-15T01:12:58.585Z,1020.26
2016-11-15T01:13:58.566Z,1020.23
2016-11-15T01:14:58.549Z,1020.23
2016-11-15T01:15:58.534Z,1020.21
2016-11-15T01:16:58.519Z,1020.28
2016-11-15T01:17:58.502Z,1020.21
2016-11-15T01:18:58.482Z,1020.17
2016-11-15T01:19:58.467Z,1020.2
2016-11-15T01:20:58.452Z,1020.18
2016-11-15T01:21:58.435Z,1020.13
2016-11-15T01:22:58.418Z,1020.14
2016-11-15T01:23:58.404Z,1020.1
2016-11-15T01:24:58.385Z,1020.11
2016-11-15T01:25:58.366Z,1020.16
2016-11-15T01:26:58.350Z,1020.07
2016-11-15T01:27:58.335Z,1020.07
2016-11-15T01:28:58.318Z,1020.08
2016-11-15T01:29:58.301Z,1020.08
2016-11-15T01:30:58.286Z,1020.11
2016-11-15T01:31:58.269Z,1020.1
2016-11-15T01:32:58.256Z,1020.08
2016-11-15T01:33:58.231Z,1020.03
2016-11-15T01:34:58.221Z,1020.03
2016-11-15T01:35:58.202Z,1020.01
2016-11-15T01:36:58.185Z,1020.06
2016-11-15T01:37:58.166Z,1020.06
2016-11-15T01:38:58.152Z,1020.06
2016-11-15T01:39:58.137Z,1020.09
2016-11-15T01:40:58.117Z,1020.06
2016-11-15T01:41:58.100Z,1020.04
2016-11-15T01:42:58.085Z,1019.98
2016-11-15T01:43:58.066Z,1019.98
2016-11-15T01:44:58.053Z,1019.96
2016-11-15T01:45:58.035Z,1019.97
2016-11-15T01:46:58.017Z,1019.93
2016-11-15T01:47:58.001Z,1019.89
2016-11-15T01:48:57.995Z,1019.9
2016-11-15T01:49:57.969Z,1019.9
2016-11-15T01:50:57.951Z,1019.87
2016-11-15T01:51:57.934Z,1019.85
2016-11-15T01:52:57.917Z,1019.83
2016-11-15T01:53:57.902Z,1019.83
2016-11-15T01:54:57.883Z,1019.83
2016-11-15T01:55:57.865Z,1019.78
2016-11-15T01:56:57.850Z,1019.74
2016-11-15T01:57:57.837Z,1019.73
2016-11-15T01:58:57.818Z,1019.74
2016-11-15T01:59:57.800Z,1019.73
2016-11-15T02:00:57.781Z,1019.73
2016-11-15T02:01:57.765Z,1019.74
2016-11-15T02:02:57.751Z,1019.73
2016-11-15T02:03:57.732Z,1019.69
2016-11-15T02:04:57.719Z,1019.69
2016-11-15T02:05:57.697Z,1019.64
2016-11-15T02:06:57.683Z,1019.63
2016-11-15T02:07:57.667Z,1019.57
2016-11-15T02:08:57.648Z,1019.58
2016-11-15T02:09:57.634Z,1019.53
2016-11-15T02:10:57.615Z,1019.46
2016-11-15T02:11:57.599Z,1019.53
2016-11-15T02:12:57.583Z,1019.48
2016-11-15T02:13:57.571Z,1019.44
2016-11-15T02:14:57.548Z,1019.45
2016-11-15T02:15:57.531Z,1019.5
2016-11-15T02:16:57.512Z,1019.45
2016-11-15T02:17:57.497Z,1019.41
2016-11-15T02:18:57.482Z,1019.41
2016-11-15T02:19:57.464Z,1019.34
2016-11-15T02:20:57.448Z,1019.39
2016-11-15T02:21:57.432Z,1019.36
2016-11-15T02:22:57.415Z,1019.35
2016-11-15T02:23:57.397Z,1019.33
2016-11-15T02:24:57.386Z,1019.34
2016-11-15T02:25:57.367Z,1019.28
2016-11-15T02:26:57.346Z,1019.28
2016-11-15T02:27:57.336Z,1019.29
2016-11-15T02:28:57.315Z,1019.25
2016-11-15T02:29:57.300Z,1019.26
2016-11-15T02:30:57.281Z,1019.24
2016-11-15T02:31:57.265Z,1019.25
2016-11-15T02:32:57.249Z,1019.28
2016-11-15T02:33:57.231Z,1019.25
2016-11-15T02:34:57.214Z,1019.22
2016-11-15T02:35:57.197Z,1019.23
2016-11-15T02:36:57.180Z,1019.27
2016-11-15T02:37:57.161Z,1019.23
2016-11-15T02:38:57.151Z,1019.23
2016-11-15T02:39:57.130Z,1019.26
2016-11-15T02:40:57.113Z,1019.2
2016-11-15T02:41:57.096Z,1019.17
2016-11-15T02:42:57.081Z,1019.17
2016-11-15T02:43:57.063Z,1019.14
2016-11-15T02:44:57.046Z,1019.13
2016-11-15T02:45:57.029Z,1019.12
2016-11-15T02:46:57.012Z,1019.1
2016-11-15T02:47:56.996Z,1019.14
2016-11-15T02:48:56.979Z,1019.1
2016-11-15T02:49:56.965Z,1019.11
2016-11-15T02:50:56.944Z,1019.07
2016-11-15T02:51:56.930Z,1019.08
2016-11-15T02:52:56.911Z,1019.01
2016-11-15T02:53:56.895Z,1018.98
2016-11-15T02:54:56.880Z,1018.96
2016-11-15T02:55:56.861Z,1018.97
2016-11-15T02:56:56.841Z,1018.95
2016-11-15T02:57:56.824Z,1018.92
2016-11-15T02:58:56.811Z,1018.88
2016-11-15T02:59:56.790Z,1018.89
2016-11-15T03:00:56.776Z,1018.85
2016-11-15T03:01:56.761Z,1018.92
2016-11-15T03:02:56.742Z,1018.88
2016-11-15T03:03:56.726Z,1018.94
2016-11-15T03:04:56.711Z,1018.88
2016-11-15T03:05:56.690Z,1018.88
2016-11-15T03:06:56.677Z,1018.84
2016-11-15T03:07:56.661Z,1018.84
2016-11-15T03:08:56.641Z,1018.83
2016-11-15T03:09:56.625Z,1018.79
2016-11-15T03:10:56.604Z,1018.79
2016-11-15T03:11:56.590Z,1018.81
2016-11-15T03:12:56.573Z,1018.79
2016-11-15T03:13:56.566Z,1018.83
2016-11-15T03:14:56.537Z,1018.79
2016-11-15T03:15:56.522Z,1018.75
2016-11-15T03:16:56.502Z,1018.81
2016-11-15T03:17:56.490Z,1018.83
2016-11-15T03:18:56.470Z,1018.82
2016-11-15T03:19:56.456Z,1018.85
2016-11-15T03:20:56.437Z,1018.82
2016-11-15T03:21:56.419Z,1018.8
2016-11-15T03:22:56.406Z,1018.82
2016-11-15T03:23:56.385Z,1018.86
2016-11-15T03:24:56.372Z,1018.84
2016-11-15T03:25:56.353Z,1018.78
2016-11-15T03:26:56.335Z,1018.83
2016-11-15T03:27:56.315Z,1018.81
2016-11-15T03:28:56.301Z,1018.79
2016-11-15T03:29:56.284Z,1018.8
2016-11-15T03:30:56.266Z,1018.75
2016-11-15T03:31:56.252Z,1018.76
2016-11-15T03:32:56.232Z,1018.78
2016-11-15T03:33:56.220Z,1018.76
2016-11-15T03:34:56.198Z,1018.79
2016-11-15T03:35:56.205Z,1018.76
2016-11-15T03:36:56.165Z,1018.77
2016-11-15T03:37:56.147Z,1018.79
2016-11-15T03:38:56.132Z,1018.77
2016-11-15T03:39:56.113Z,1018.82
2016-11-15T03:40:56.102Z,1018.78
2016-11-15T03:41:56.081Z,1018.78
2016-11-15T03:42:56.062Z,1018.77
2016-11-15T03:43:56.046Z,1018.75
2016-11-15T03:44:56.029Z,1018.71
2016-11-15T03:45:56.014Z,1018.71
2016-11-15T03:46:55.995Z,1018.69
2016-11-15T03:47:55.982Z,1018.66
2016-11-15T03:48:55.960Z,1018.64
2016-11-15T03:49:55.945Z,1018.63
2016-11-15T03:50:55.928Z,1018.62
2016-11-15T03:51:55.910Z,1018.63
2016-11-15T03:52:55.893Z,1018.53
2016-11-15T03:53:55.878Z,1018.55
2016-11-15T03:54:55.859Z,1018.53
2016-11-15T03:55:55.842Z,1018.55
2016-11-15T03:56:55.828Z,1018.51
2016-11-15T03:57:55.813Z,1018.5
2016-11-15T03:58:55.796Z,1018.5
2016-11-15T03:59:55.775Z,1018.46
2016-11-15T04:00:55.756Z,1018.44
2016-11-15T04:01:55.742Z,1018.48
2016-11-15T04:02:55.725Z,1018.46
2016-11-15T04:03:55.708Z,1018.44
2016-11-15T04:04:55.693Z,1018.41
2016-11-15T04:05:55.678Z,1018.4
2016-11-15T04:06:55.658Z,1018.37
2016-11-15T04:07:55.641Z,1018.38
2016-11-15T04:08:55.624Z,1018.34
2016-11-15T04:09:55.607Z,1018.36
2016-11-15T04:10:55.592Z,1018.36
2016-11-15T04:11:55.574Z,1018.39
2016-11-15T04:12:55.555Z,1018.33
2016-11-15T04:13:55.538Z,1018.39
2016-11-15T04:14:55.523Z,1018.36
2016-11-15T04:15:55.507Z,1018.33
2016-11-15T04:16:55.488Z,1018.34
2016-11-15T04:17:55.475Z,1018.35
2016-11-15T04:18:55.454Z,1018.33
2016-11-15T04:19:55.443Z,1018.3
2016-11-15T04:20:55.419Z,1018.31
2016-11-15T04:21:55.404Z,1018.32
2016-11-15T04:22:55.387Z,1018.3
2016-11-15T04:23:55.368Z,1018.29
2016-11-15T04:24:55.353Z,1018.3
2016-11-15T04:25:55.336Z,1018.27
2016-11-15T04:26:55.318Z,1018.29
2016-11-15T04:27:55.301Z,1018.3
2016-11-15T04:28:55.283Z,1018.31
2016-11-15T04:29:55.268Z,1018.28
2016-11-15T04:30:55.249Z,1018.29
2016-11-15T04:31:55.234Z,1018.3
2016-11-15T04:32:55.217Z,1018.28
2016-11-15T04:33:55.204Z,1018.26
2016-11-15T04:34:55.182Z,1018.21
2016-11-15T04:35:55.171Z,1018.21
2016-11-15T04:36:55.151Z,1018.2
2016-11-15T04:37:55.134Z,1018.23
2016-11-15T04:38:55.114Z,1018.2
2016-11-15T04:39:55.098Z,1018.18
2016-11-15T04:40:55.082Z,1018.19
2016-11-15T04:41:55.064Z,1018.18
2016-11-15T04:42:55.047Z,1018.15
2016-11-15T04:43:55.029Z,1018.18
2016-11-15T04:44:55.014Z,1018.21
2016-11-15T04:45:54.997Z,1018.2
2016-11-15T04:46:54.980Z,1018.16
2016-11-15T04:47:54.965Z,1018.21
2016-11-15T04:48:54.945Z,1018.13
2016-11-15T04:49:54.932Z,1018.15
2016-11-15T04:50:54.911Z,1018.14
2016-11-15T04:51:54.894Z,1018.16
2016-11-15T04:52:54.879Z,1018.12
2016-11-15T04:53:54.858Z,1018.1
2016-11-15T04:54:54.846Z,1018.09
2016-11-15T04:55:54.825Z,1018.12
2016-11-15T04:56:54.810Z,1018.09
2016-11-15T04:57:54.792Z,1018.04
2016-11-15T04:58:54.775Z,1018.01
2016-11-15T04:59:54.760Z,1018.01
2016-11-15T05:00:54.742Z,1018.04
2016-11-15T05:01:54.725Z,1017.98
2016-11-15T05:02:54.706Z,1018.03
2016-11-15T05:03:54.695Z,1017.99
2016-11-15T05:04:54.672Z,1018
2016-11-15T05:05:54.657Z,1018.06
2016-11-15T05:06:54.640Z,1018.02
2016-11-15T05:07:54.620Z,1018.02
2016-11-15T05:08:54.605Z,1017.95
2016-11-15T05:09:54.588Z,1017.97
2016-11-15T05:10:54.573Z,1018
2016-11-15T05:11:54.553Z,1017.95
2016-11-15T05:12:54.544Z,1017.97
2016-11-15T05:13:54.523Z,1017.94
2016-11-15T05:14:54.504Z,1017.93
2016-11-15T05:15:54.487Z,1017.92
2016-11-15T05:16:54.469Z,1017.92
2016-11-15T05:17:54.454Z,1017.94
2016-11-15T05:18:54.435Z,1017.9
2016-11-15T05:19:54.418Z,1017.92
2016-11-15T05:20:54.402Z,1017.89
2016-11-15T05:21:54.386Z,1017.95
2016-11-15T05:22:54.369Z,1017.96
2016-11-15T05:23:54.351Z,1017.89
2016-11-15T05:24:54.335Z,1017.94
2016-11-15T05:25:54.318Z,1017.95
2016-11-15T05:26:54.301Z,1017.93
2016-11-15T05:27:54.284Z,1017.95
2016-11-15T05:28:54.267Z,1017.88
2016-11-15T05:29:54.248Z,1017.91
2016-11-15T05:30:54.234Z,1017.88
2016-11-15T05:31:54.217Z,1017.87
2016-11-15T05:32:54.198Z,1017.91
2016-11-15T05:33:54.183Z,1017.91
2016-11-15T05:34:54.166Z,1017.84
2016-11-15T05:35:54.154Z,1017.86
2016-11-15T05:36:54.133Z,1017.84
2016-11-15T05:37:54.116Z,1017.86
2016-11-15T05:38:54.099Z,1017.8
2016-11-15T05:39:54.085Z,1017.79
2016-11-15T05:40:54.068Z,1017.79
2016-11-15T05:41:54.049Z,1017.78
2016-11-15T05:42:54.033Z,1017.75
2016-11-15T05:43:54.018Z,1017.82
2016-11-15T05:44:53.999Z,1017.8
2016-11-15T05:45:53.984Z,1017.82
2016-11-15T05:46:53.967Z,1017.77
2016-11-15T05:47:53.952Z,1017.71
2016-11-15T05:48:53.932Z,1017.72
2016-11-15T05:49:53.919Z,1017.67
2016-11-15T05:50:53.900Z,1017.65
2016-11-15T05:51:53.883Z,1017.62
2016-11-15T05:52:53.868Z,1017.63
2016-11-15T05:53:53.850Z,1017.65
2016-11-15T05:54:53.838Z,1017.61
2016-11-15T05:55:53.816Z,1017.62
2016-11-15T05:56:53.799Z,1017.6
2016-11-15T05:57:53.784Z,1017.64
2016-11-15T05:58:53.768Z,1017.56
2016-11-15T05:59:53.751Z,1017.58
2016-11-15T06:00:53.734Z,1017.61
2016-11-15T06:01:53.720Z,1017.58
2016-11-15T06:02:53.701Z,1017.6
2016-11-15T06:03:53.684Z,1017.56
2016-11-15T06:04:53.669Z,1017.6
2016-11-15T06:05:53.652Z,1017.58
2016-11-15T06:06:53.635Z,1017.59
2016-11-15T06:07:53.619Z,1017.58
2016-11-15T06:08:53.603Z,1017.57
2016-11-15T06:09:53.586Z,1017.58
2016-11-15T06:10:53.569Z,1017.6
2016-11-15T06:11:53.551Z,1017.63
2016-11-15T06:12:53.539Z,1017.73
2016-11-15T06:13:53.518Z,1017.67
2016-11-15T06:14:53.502Z,1017.67
2016-11-15T06:15:53.486Z,1017.66
2016-11-15T06:16:53.472Z,1017.66
2016-11-15T06:17:53.453Z,1017.64
2016-11-15T06:18:53.438Z,1017.74
2016-11-15T06:19:53.421Z,1017.7
2016-11-15T06:20:53.410Z,1017.6
2016-11-15T06:21:53.388Z,1017.67
2016-11-15T06:22:53.371Z,1017.63
2016-11-15T06:23:53.356Z,1017.63
2016-11-15T06:24:53.339Z,1017.59
2016-11-15T06:25:53.323Z,1017.62
2016-11-15T06:26:53.306Z,1017.6
2016-11-15T06:27:53.292Z,1017.62
2016-11-15T06:28:53.272Z,1017.55
2016-11-15T06:29:53.261Z,1017.56
2016-11-15T06:30:53.239Z,1017.6
2016-11-15T06:31:53.251Z,1017.57
2016-11-15T06:32:53.206Z,1017.57
2016-11-15T06:33:53.190Z,1017.56
2016-11-15T06:34:53.173Z,1017.58
2016-11-15T06:35:53.159Z,1017.5
2016-11-15T06:36:53.142Z,1017.55
2016-11-15T06:37:53.126Z,1017.56
2016-11-15T06:38:53.108Z,1017.55
2016-11-15T06:39:53.094Z,1017.57
2016-11-15T06:40:53.077Z,1017.58
2016-11-15T06:41:53.060Z,1017.56
2016-11-15T06:42:53.041Z,1017.53
2016-11-15T06:43:53.026Z,1017.56
2016-11-15T06:44:53.017Z,1017.54
2016-11-15T06:45:52.993Z,1017.49
2016-11-15T06:46:52.976Z,1017.47
2016-11-15T06:47:52.963Z,1017.47
2016-11-15T06:48:52.947Z,1017.48
2016-11-15T06:49:52.932Z,1017.5
2016-11-15T06:50:52.913Z,1017.5
2016-11-15T06:51:52.898Z,1017.53
2016-11-15T06:52:52.880Z,1017.53
2016-11-15T06:53:52.861Z,1017.52
2016-11-15T06:54:52.847Z,1017.46
2016-11-15T06:55:52.828Z,1017.45
2016-11-15T06:56:52.815Z,1017.5
2016-11-15T06:57:52.798Z,1017.46
2016-11-15T06:58:52.781Z,1017.44
2016-11-15T06:59:52.765Z,1017.45
2016-11-15T07:00:52.752Z,1017.48
2016-11-15T07:01:52.732Z,1017.5
2016-11-15T07:02:52.717Z,1017.53
2016-11-15T07:03:52.700Z,1017.56
2016-11-15T07:04:52.687Z,1017.53
2016-11-15T07:05:52.665Z,1017.51
2016-11-15T07:06:52.658Z,1017.51
2016-11-15T07:07:52.634Z,1017.55
2016-11-15T07:08:52.617Z,1017.54
2016-11-15T07:09:52.600Z,1017.52
2016-11-15T07:10:52.584Z,1017.61
2016-11-15T07:11:52.571Z,1017.59
2016-11-15T07:12:52.553Z,1017.59
2016-11-15T07:13:52.537Z,1017.67
2016-11-15T07:14:52.529Z,1017.62
2016-11-15T07:15:52.503Z,1017.65
2016-11-15T07:16:52.488Z,1017.66
2016-11-15T07:17:52.471Z,1017.7
2016-11-15T07:18:52.455Z,1017.73
2016-11-15T07:19:52.437Z,1017.74
2016-11-15T07:20:52.422Z,1017.69
2016-11-15T07:21:52.408Z,1017.7
2016-11-15T07:22:52.388Z,1017.73
2016-11-15T07:23:52.372Z,1017.74
2016-11-15T07:24:52.357Z,1017.73
2016-11-15T07:25:52.341Z,1017.76
2016-11-15T07:26:52.324Z,1017.78
2016-11-15T07:27:52.306Z,1017.75
2016-11-15T07:28:52.294Z,1017.71
2016-11-15T07:29:52.277Z,1017.73
2016-11-15T07:30:52.259Z,1017.77
2016-11-15T07:31:52.241Z,1017.75
2016-11-15T07:32:52.226Z,1017.69
2016-11-15T07:33:52.213Z,1017.68
2016-11-15T07:34:52.194Z,1017.69
2016-11-15T07:35:52.180Z,1017.69
2016-11-15T07:36:52.165Z,1017.69
2016-11-15T07:37:52.142Z,1017.7
2016-11-15T07:38:52.128Z,1017.69
2016-11-15T07:39:52.115Z,1017.65
2016-11-15T07:40:52.097Z,1017.68
2016-11-15T07:41:52.078Z,1017.69
2016-11-15T07:42:52.065Z,1017.72
2016-11-15T07:43:52.046Z,1017.72
2016-11-15T07:44:52.032Z,1017.69
2016-11-15T07:45:52.017Z,1017.69
2016-11-15T07:46:52.000Z,1017.74
2016-11-15T07:47:51.985Z,1017.75
2016-11-15T07:48:51.968Z,1017.7
2016-11-15T07:49:51.951Z,1017.7
2016-11-15T07:50:51.935Z,1017.66
2016-11-15T07:51:51.920Z,1017.72
2016-11-15T07:52:51.903Z,1017.63
2016-11-15T07:53:51.887Z,1017.63
2016-11-15T07:54:51.872Z,1017.64
2016-11-15T07:55:51.854Z,1017.64
2016-11-15T07:56:51.838Z,1017.6
2016-11-15T07:57:51.823Z,1017.61
2016-11-15T07:58:51.810Z,1017.57
2016-11-15T07:59:51.790Z,1017.63
2016-11-15T08:00:51.775Z,1017.63
2016-11-15T08:01:51.760Z,1017.56
2016-11-15T08:02:51.743Z,1017.53
2016-11-15T08:03:51.726Z,1017.61
2016-11-15T08:04:51.710Z,1017.61
2016-11-15T08:05:51.745Z,1017.6
2016-11-15T08:06:51.677Z,1017.64
2016-11-15T08:07:51.662Z,1017.65
2016-11-15T08:08:51.645Z,1017.63
2016-11-15T08:09:51.630Z,1017.69
2016-11-15T08:10:51.616Z,1017.65
2016-11-15T08:11:51.598Z,1017.72
2016-11-15T08:12:51.582Z,1017.73
2016-11-15T08:13:51.565Z,1017.71
2016-11-15T08:14:51.550Z,1017.75
2016-11-15T08:15:51.533Z,1017.69
2016-11-15T08:16:51.522Z,1017.69
2016-11-15T08:17:51.501Z,1017.66
2016-11-15T08:18:51.487Z,1017.67
2016-11-15T08:19:51.490Z,1017.59
2016-11-15T08:20:51.457Z,1017.62
2016-11-15T08:21:51.437Z,1017.58
2016-11-15T08:22:51.422Z,1017.6
2016-11-15T08:23:51.403Z,1017.63
2016-11-15T08:24:51.390Z,1017.62
2016-11-15T08:25:51.374Z,1017.65
2016-11-15T08:26:51.358Z,1017.72
2016-11-15T08:27:51.344Z,1017.69
2016-11-15T08:28:51.568Z,1017.69
2016-11-15T08:29:51.314Z,1017.83
2016-11-15T08:30:51.295Z,1017.8
2016-11-15T08:31:51.280Z,1017.75
2016-11-15T08:32:51.263Z,1017.85
2016-11-15T08:33:51.246Z,1017.81
2016-11-15T08:34:51.231Z,1017.8
2016-11-15T08:35:51.218Z,1017.83
2016-11-15T08:36:51.199Z,1017.85
2016-11-15T08:37:51.183Z,1017.87
2016-11-15T08:38:51.168Z,1017.84
2016-11-15T08:39:51.150Z,1017.82
2016-11-15T08:40:51.136Z,1017.76
2016-11-15T08:41:51.122Z,1017.76
2016-11-15T08:42:51.104Z,1017.78
2016-11-15T08:43:51.088Z,1017.79
2016-11-15T08:44:51.074Z,1017.86
2016-11-15T08:45:51.336Z,1017.88
2016-11-15T08:46:51.045Z,1017.83
2016-11-15T08:47:51.026Z,1017.75
2016-11-15T08:48:51.059Z,1017.76
2016-11-15T08:49:50.995Z,1017.76
2016-11-15T08:50:50.976Z,1017.79
2016-11-15T08:51:50.961Z,1017.79
2016-11-15T08:52:50.946Z,1017.78
2016-11-15T08:53:50.930Z,1017.85
2016-11-15T08:54:50.913Z,1017.77
2016-11-15T08:55:50.900Z,1017.8
2016-11-15T08:56:50.881Z,1017.85
2016-11-15T08:57:50.866Z,1017.79
2016-11-15T08:58:50.849Z,1017.78
2016-11-15T08:59:50.834Z,1017.78
2016-11-15T09:00:50.819Z,1017.81
2016-11-15T09:01:50.801Z,1017.75
2016-11-15T09:02:50.786Z,1017.67
2016-11-15T09:03:50.771Z,1017.69
2016-11-15T09:04:50.757Z,1017.71
2016-11-15T09:05:50.738Z,1017.72
2016-11-15T09:06:50.723Z,1017.74
2016-11-15T09:07:50.709Z,1017.71
2016-11-15T09:08:50.691Z,1017.64
2016-11-15T09:09:50.674Z,1017.63
2016-11-15T09:10:50.661Z,1017.62
2016-11-15T09:11:50.644Z,1017.63
2016-11-15T09:12:50.629Z,1017.67
2016-11-15T09:13:50.611Z,1017.58
2016-11-15T09:14:50.598Z,1017.6
2016-11-15T09:15:50.581Z,1017.61
2016-11-15T09:16:50.564Z,1017.65
2016-11-15T09:17:50.549Z,1017.61
2016-11-15T09:18:50.538Z,1017.63
2016-11-15T09:19:50.518Z,1017.64
2016-11-15T09:20:50.502Z,1017.63
2016-11-15T09:21:50.485Z,1017.62
2016-11-15T09:22:50.470Z,1017.67
2016-11-15T09:23:50.452Z,1017.69
2016-11-15T09:24:50.437Z,1017.72
2016-11-15T09:25:50.430Z,1017.73
2016-11-15T09:26:50.413Z,1017.66
2016-11-15T09:27:50.392Z,1017.69
2016-11-15T09:28:50.374Z,1017.75
2016-11-15T09:29:50.359Z,1017.73
2016-11-15T09:30:50.342Z,1017.72
2016-11-15T09:31:50.329Z,1017.79
2016-11-15T09:32:50.310Z,1017.78
2016-11-15T09:33:50.373Z,1017.78
2016-11-15T09:34:50.280Z,1017.77
2016-11-15T09:35:50.268Z,1017.77
2016-11-15T09:36:50.251Z,1017.73
2016-11-15T09:37:50.235Z,1017.66
2016-11-15T09:38:50.217Z,1017.62
2016-11-15T09:39:50.200Z,1017.61
2016-11-15T09:40:50.185Z,1017.54
2016-11-15T09:41:50.169Z,1017.48
2016-11-15T09:42:50.157Z,1017.47
2016-11-15T09:43:50.137Z,1017.44
2016-11-15T09:44:50.122Z,1017.38
2016-11-15T09:45:50.132Z,1017.36
2016-11-15T09:46:50.093Z,1017.31
2016-11-15T09:47:50.074Z,1017.32
2016-11-15T09:48:50.061Z,1017.35
2016-11-15T09:49:50.042Z,1017.35
2016-11-15T09:50:50.027Z,1017.45
2016-11-15T09:51:50.011Z,1017.46
2016-11-15T09:52:49.995Z,1017.48
2016-11-15T09:53:49.987Z,1017.46
2016-11-15T09:54:49.964Z,1017.48
2016-11-15T09:55:49.949Z,1017.51
2016-11-15T09:56:49.928Z,1017.49
2016-11-15T09:57:49.917Z,1017.56
2016-11-15T09:58:49.902Z,1017.56
2016-11-15T09:59:49.885Z,1017.5
2016-11-15T10:00:49.869Z,1017.49
2016-11-15T10:01:49.856Z,1017.48
2016-11-15T10:02:49.837Z,1017.42
2016-11-15T10:03:49.822Z,1017.48
2016-11-15T10:04:49.804Z,1017.48
2016-11-15T10:05:49.794Z,1017.5
2016-11-15T10:06:49.774Z,1017.51
2016-11-15T10:07:49.756Z,1017.53
2016-11-15T10:08:49.741Z,1017.48
2016-11-15T10:09:49.726Z,1017.48
2016-11-15T10:10:49.711Z,1017.53
2016-11-15T10:11:49.694Z,1017.55
2016-11-15T10:12:49.679Z,1017.53
2016-11-15T10:13:49.668Z,1017.57
2016-11-15T10:14:49.646Z,1017.59
2016-11-15T10:15:49.631Z,1017.54
2016-11-15T10:16:49.616Z,1017.5
2016-11-15T10:17:49.600Z,1017.5
2016-11-15T10:18:49.583Z,1017.51
2016-11-15T10:19:49.568Z,1017.55
2016-11-15T10:20:49.571Z,1017.52
2016-11-15T10:21:49.786Z,1017.46
2016-11-15T10:22:49.528Z,1017.46
2016-11-15T10:23:49.506Z,1017.39
2016-11-15T10:24:49.491Z,1017.4
2016-11-15T10:25:49.473Z,1017.4
2016-11-15T10:26:49.463Z,1017.34
2016-11-15T10:27:49.442Z,1017.42
2016-11-15T10:28:49.427Z,1017.41
2016-11-15T10:29:49.410Z,1017.49
2016-11-15T10:30:49.395Z,1017.45
2016-11-15T10:31:49.377Z,1017.46
2016-11-15T10:32:49.363Z,1017.52
2016-11-15T10:33:49.345Z,1017.52
2016-11-15T10:34:49.331Z,1017.53
2016-11-15T10:35:49.317Z,1017.52
2016-11-15T10:36:49.299Z,1017.5
2016-11-15T10:37:49.282Z,1017.52
2016-11-15T10:38:49.269Z,1017.51
2016-11-15T10:39:49.255Z,1017.54
2016-11-15T10:40:49.240Z,1017.52
2016-11-15T10:41:49.226Z,1017.53
2016-11-15T10:42:49.205Z,1017.44
2016-11-15T10:43:49.193Z,1017.41
2016-11-15T10:44:49.174Z,1017.41
2016-11-15T10:45:49.155Z,1017.46
2016-11-15T10:46:49.142Z,1017.4
2016-11-15T10:47:49.124Z,1017.4
2016-11-15T10:48:49.109Z,1017.48
2016-11-15T10:49:49.094Z,1017.42
2016-11-15T10:50:49.081Z,1017.48
2016-11-15T10:51:49.061Z,1017.48
2016-11-15T10:52:49.049Z,1017.49
2016-11-15T10:53:49.031Z,1017.48
2016-11-15T10:54:49.015Z,1017.52
2016-11-15T10:55:49.000Z,1017.47
2016-11-15T10:56:48.985Z,1017.46
2016-11-15T10:57:48.968Z,1017.42
2016-11-15T10:58:48.952Z,1017.43
2016-11-15T10:59:48.936Z,1017.44
2016-11-15T11:00:48.926Z,1017.45
2016-11-15T11:01:48.905Z,1017.45
2016-11-15T11:02:48.888Z,1017.47
2016-11-15T11:03:48.873Z,1017.4
2016-11-15T11:04:48.857Z,1017.44
2016-11-15T11:05:48.840Z,1017.35
2016-11-15T11:06:48.825Z,1017.34
2016-11-15T11:07:48.810Z,1017.33
2016-11-15T11:08:48.794Z,1017.34
2016-11-15T11:09:48.778Z,1017.38
2016-11-15T11:10:48.762Z,1017.41
2016-11-15T11:11:48.749Z,1017.37
2016-11-15T11:12:48.729Z,1017.34
2016-11-15T11:13:48.713Z,1017.32
2016-11-15T11:14:48.699Z,1017.35
2016-11-15T11:15:48.686Z,1017.31
2016-11-15T11:16:48.665Z,1017.29
2016-11-15T11:17:48.649Z,1017.3
2016-11-15T11:18:48.635Z,1017.26
2016-11-15T11:19:48.619Z,1017.26
2016-11-15T11:20:48.604Z,1017.27
2016-11-15T11:21:48.585Z,1017.27
2016-11-15T11:22:48.573Z,1017.21
2016-11-15T11:23:48.556Z,1017.23
2016-11-15T11:24:48.539Z,1017.25
2016-11-15T11:25:48.522Z,1017.27
2016-11-15T11:26:48.508Z,1017.22
2016-11-15T11:27:48.492Z,1017.17
2016-11-15T11:28:48.476Z,1017.15
2016-11-15T11:29:48.461Z,1017.13
2016-11-15T11:30:48.444Z,1017.13
2016-11-15T11:31:48.427Z,1017.14
2016-11-15T11:32:48.411Z,1017.17
2016-11-15T11:33:48.397Z,1017.14
2016-11-15T11:34:48.381Z,1017.11
2016-11-15T11:35:48.365Z,1017.17
2016-11-15T11:36:48.358Z,1017.15
2016-11-15T11:37:48.333Z,1017.15
2016-11-15T11:38:48.328Z,1017.12
2016-11-15T11:39:48.301Z,1017.11
2016-11-15T11:40:48.285Z,1017.13
2016-11-15T11:41:48.268Z,1017.14
2016-11-15T11:42:48.253Z,1017.16
2016-11-15T11:43:48.238Z,1017.13
2016-11-15T11:44:48.222Z,1017.13
2016-11-15T11:45:48.206Z,1017.09
2016-11-15T11:46:48.188Z,1017.13
2016-11-15T11:47:48.173Z,1017.13
2016-11-15T11:48:48.156Z,1017.12
2016-11-15T11:49:48.140Z,1017.07
2016-11-15T11:50:48.125Z,1017.13
2016-11-15T11:51:48.108Z,1017.13
2016-11-15T11:52:48.093Z,1017.08
2016-11-15T11:53:48.078Z,1017
2016-11-15T11:54:48.062Z,1017.01
2016-11-15T11:55:48.045Z,1016.99
2016-11-15T11:56:48.031Z,1016.98
2016-11-15T11:57:48.017Z,1016.98
2016-11-15T11:58:48.002Z,1017.01
2016-11-15T11:59:47.987Z,1017.02
2016-11-15T12:00:47.967Z,1017.02
2016-11-15T12:01:47.965Z,1016.97
2016-11-15T12:02:47.945Z,1016.96
2016-11-15T12:03:47.928Z,1017.03
2016-11-15T12:04:48.070Z,1016.92
2016-11-15T12:05:47.884Z,1016.95
2016-11-15T12:06:47.872Z,1016.91
2016-11-15T12:07:47.865Z,1016.89
2016-11-15T12:08:47.840Z,1016.88